Terminal Aerodrome Forecast
Issued by NWS Cleveland, OH

Home | Current Version | Previous Version | Text Only | Print | Product List | Glossary Off
Versions: 1 2 3 4 5 6 7 8 9 10 11 12 13 14

000
FTUS41 KCLE 161700
TAFTOL
TAF
KTOL 161739Z 1618/1718 30006KT P6SM BKN040
     FM162000 28006KT P6SM SCT045
     FM170000 VRB03KT P6SM SKC
     FM171500 27006KT P6SM SKC=

USA.gov is the U.S. government's official web portal to all federal, state and local government web resources and services.